Time;durP1;ratioP1;P1;durP2;ratioP2;P2;SDS_P1;SDS_P2;PMS_P1;PMS_P2;Temp;Humidity;BMP_temperature;BMP_pressure;BME280_temperature;BME280_humidity;BME280_pressure;Samples;Min_cycle;Max_cycle;Signal;HPM_P1;HPM_P2
2021/09/23 00:00:50;;;;;;;;;;;18.60;89.70;;;;;;5110800;28;19916;-77
2021/09/23 00:05:54;;;;;;;;;;;18.40;90.20;;;;;;5111050;28;19908;-75
2021/09/23 00:08:19;;;;;;;;;;;18.30;90.30;;;;;;5110659;28;19915;-76
2021/09/23 00:10:45;;;;;;;;;;;18.20;90.60;;;;;;5110545;28;19915;-77
2021/09/23 00:13:11;;;;;;;;;;;18.10;90.90;;;;;;5110516;28;19969;-77
2021/09/23 00:15:37;;;;;;;;;;;18.10;91.30;;;;;;5110602;28;20555;-77
2021/09/23 00:18:04;;;;;;;;;;;18.00;91.50;;;;;;5092353;28;19907;-75
2021/09/23 00:20:31;;;;;;;;;;;18.00;92.10;;;;;;5092141;28;19910;-76
2021/09/23 00:22:57;;;;;;;;;;;17.90;92.20;;;;;;5110485;28;19998;-75
2021/09/23 00:25:25;;;;;;;;;;;17.90;92.40;;;;;;5109891;28;20048;-76
2021/09/23 00:27:52;;;;;;;;;;;17.90;92.50;;;;;;5110406;28;20354;-76
2021/09/23 00:30:18;;;;;;;;;;;17.90;92.70;;;;;;5091854;28;20353;-74
2021/09/23 00:32:43;;;;;;;;;;;17.90;92.80;;;;;;5110246;28;19934;-77
2021/09/23 00:35:09;;;;;;;;;;;17.80;93.10;;;;;;5092152;28;20369;-78
2021/09/23 00:37:35;;;;;;;;;;;17.80;93.10;;;;;;5110032;28;19919;-76
2021/09/23 00:40:00;;;;;;;;;;;17.80;93.30;;;;;;5110227;28;20034;-80
2021/09/23 00:42:26;;;;;;;;;;;17.70;93.50;;;;;;5109965;28;20006;-75
2021/09/23 00:44:55;;;;;;;;;;;17.80;93.70;;;;;;5091918;28;19914;-76
2021/09/23 00:47:21;;;;;;;;;;;17.70;93.80;;;;;;5109971;28;19903;-79
2021/09/23 00:49:47;;;;;;;;;;;17.70;93.90;;;;;;5109820;28;19914;-77
2021/09/23 00:52:13;;;;;;;;;;;17.70;94.10;;;;;;5110164;28;20010;-74
2021/09/23 00:54:38;;;;;;;;;;;17.60;94.20;;;;;;5109876;28;19998;-74
2021/09/23 00:57:04;;;;;;;;;;;17.60;94.40;;;;;;5091759;28;19933;-74
2021/09/23 00:59:29;;;;;;;;;;;17.60;94.60;;;;;;5109775;28;20343;-77
2021/09/23 01:01:55;;;;;;;;;;;17.60;94.60;;;;;;5109632;28;19912;-77
2021/09/23 01:04:20;;;;;;;;;;;17.60;94.60;;;;;;5091403;28;19951;-75
2021/09/23 01:06:50;;;;;;;;;;;17.60;94.70;;;;;;5091290;28;19908;-78
2021/09/23 01:09:16;;;;;;;;;;;17.60;94.80;;;;;;5109388;28;19916;-74
2021/09/23 01:11:42;;;;;;;;;;;17.60;94.80;;;;;;5109469;28;19910;-75
2021/09/23 01:14:08;;;;;;;;;;;17.60;94.90;;;;;;5109458;28;19998;-77
2021/09/23 01:16:33;;;;;;;;;;;17.70;94.90;;;;;;5109426;28;19998;-77
2021/09/23 01:18:59;;;;;;;;;;;17.60;95.00;;;;;;5109579;28;19969;-76
2021/09/23 01:21:25;;;;;;;;;;;17.70;95.10;;;;;;5109219;28;20242;-77
2021/09/23 01:23:50;;;;;;;;;;;17.70;95.20;;;;;;5090967;28;19956;-75
2021/09/23 01:26:18;;;;;;;;;;;17.70;95.20;;;;;;5109176;28;19951;-76
2021/09/23 01:28:45;;;;;;;;;;;17.70;95.30;;;;;;5109011;28;19916;-75
2021/09/23 01:31:10;;;;;;;;;;;17.70;95.40;;;;;;5090839;28;19911;-74
2021/09/23 01:33:36;;;;;;;;;;;17.70;95.40;;;;;;5109095;28;20372;-77
2021/09/23 01:36:02;;;;;;;;;;;17.70;95.40;;;;;;5108491;28;19904;-79
2021/09/23 01:38:28;;;;;;;;;;;17.70;95.50;;;;;;5090495;28;20322;-79
2021/09/23 01:40:54;;;;;;;;;;;17.70;95.50;;;;;;5108856;28;19907;-78
2021/09/23 01:43:20;;;;;;;;;;;17.80;95.50;;;;;;5108938;28;19907;-78
2021/09/23 01:45:46;;;;;;;;;;;17.80;95.50;;;;;;5108980;28;19904;-78
2021/09/23 01:48:12;;;;;;;;;;;17.80;95.50;;;;;;5108864;28;19910;-80
2021/09/23 01:50:38;;;;;;;;;;;17.80;95.50;;;;;;5090366;28;19912;-75
2021/09/23 01:53:03;;;;;;;;;;;17.80;95.50;;;;;;5108802;28;19998;-76
2021/09/23 01:55:29;;;;;;;;;;;17.90;95.50;;;;;;5108699;28;19953;-79
2021/09/23 01:57:54;;;;;;;;;;;17.90;95.50;;;;;;5090702;28;20354;-76
2021/09/23 02:00:20;;;;;;;;;;;17.90;95.50;;;;;;5090378;28;20255;-79
2021/09/23 02:02:46;;;;;;;;;;;17.90;95.50;;;;;;5108754;28;19927;-77
2021/09/23 02:05:12;;;;;;;;;;;17.90;95.60;;;;;;5108648;28;20339;-79
2021/09/23 02:07:37;;;;;;;;;;;17.90;95.60;;;;;;5090464;28;19912;-78
2021/09/23 02:10:04;;;;;;;;;;;17.90;95.70;;;;;;5090436;28;20353;-77
2021/09/23 02:12:29;;;;;;;;;;;17.90;95.70;;;;;;5108258;28;19915;-80
2021/09/23 02:14:55;;;;;;;;;;;17.90;95.80;;;;;;5108583;28;20015;-77
2021/09/23 02:17:21;;;;;;;;;;;17.90;95.90;;;;;;5090100;28;19915;-79
2021/09/23 02:19:46;;;;;;;;;;;17.90;95.90;;;;;;5090368;28;19908;-78
2021/09/23 02:22:12;;;;;;;;;;;17.90;96.00;;;;;;5108456;28;20004;-78
2021/09/23 02:24:37;;;;;;;;;;;17.90;96.10;;;;;;5108577;28;20006;-76
2021/09/23 02:27:04;;;;;;;;;;;17.80;96.00;;;;;;5108331;28;19911;-79
2021/09/23 02:29:30;;;;;;;;;;;17.80;96.20;;;;;;5108221;28;19912;-79
2021/09/23 02:31:56;;;;;;;;;;;17.80;96.10;;;;;;5108664;28;20270;-79
2021/09/23 02:34:22;;;;;;;;;;;17.80;96.10;;;;;;5108184;28;20350;-77
2021/09/23 02:36:47;;;;;;;;;;;17.80;96.10;;;;;;5108196;28;19919;-75
2021/09/23 02:39:13;;;;;;;;;;;17.80;96.20;;;;;;5089911;28;19915;-78
2021/09/23 02:41:38;;;;;;;;;;;17.80;96.20;;;;;;5108167;28;19950;-78
2021/09/23 02:44:04;;;;;;;;;;;17.80;96.20;;;;;;5108200;28;20002;-76
2021/09/23 02:46:31;;;;;;;;;;;17.80;96.10;;;;;;5108201;28;20002;-78
2021/09/23 02:48:57;;;;;;;;;;;17.70;96.10;;;;;;5111014;28;19916;-76
2021/09/23 02:51:23;;;;;;;;;;;17.70;96.10;;;;;;5112171;28;20027;-78
2021/09/23 02:53:48;;;;;;;;;;;17.60;96.00;;;;;;5112245;28;20142;-77
2021/09/23 02:56:14;;;;;;;;;;;17.50;96.00;;;;;;5112342;28;19904;-77
2021/09/23 02:58:39;;;;;;;;;;;17.50;96.10;;;;;;5112100;28;19950;-76
2021/09/23 03:01:05;;;;;;;;;;;17.40;96.10;;;;;;5093685;28;20332;-80
2021/09/23 03:03:31;;;;;;;;;;;17.40;96.10;;;;;;5112002;28;19955;-80
2021/09/23 03:05:56;;;;;;;;;;;17.40;96.10;;;;;;5093647;28;19908;-78
2021/09/23 03:08:23;;;;;;;;;;;17.50;96.10;;;;;;5076635;28;19931;-78
2021/09/23 03:10:48;;;;;;;;;;;17.50;96.10;;;;;;5111763;28;19998;-77
2021/09/23 03:13:14;;;;;;;;;;;17.50;96.00;;;;;;5111603;28;20010;-75
2021/09/23 03:15:39;;;;;;;;;;;17.50;96.00;;;;;;5111709;28;19904;-78
2021/09/23 03:18:05;;;;;;;;;;;17.50;96.00;;;;;;5111629;28;20358;-79
2021/09/23 03:20:31;;;;;;;;;;;17.50;95.90;;;;;;5111578;28;19964;-76
2021/09/23 03:22:57;;;;;;;;;;;17.60;95.90;;;;;;5093458;28;20365;-78
2021/09/23 03:25:22;;;;;;;;;;;17.60;95.90;;;;;;5111551;28;19915;-78
2021/09/23 03:27:49;;;;;;;;;;;17.50;95.80;;;;;;5093225;28;19903;-74
2021/09/23 03:30:15;;;;;;;;;;;17.50;95.80;;;;;;5111382;28;19916;-76
2021/09/23 03:32:40;;;;;;;;;;;17.60;95.80;;;;;;5111921;28;20342;-74
2021/09/23 03:35:06;;;;;;;;;;;17.50;95.70;;;;;;5111395;28;20335;-75
2021/09/23 03:37:32;;;;;;;;;;;17.50;95.60;;;;;;5111331;28;19915;-75
2021/09/23 03:39:58;;;;;;;;;;;17.50;95.60;;;;;;5111282;28;20361;-75
2021/09/23 03:42:23;;;;;;;;;;;17.50;95.60;;;;;;5092995;28;19914;-77
2021/09/23 03:44:49;;;;;;;;;;;17.40;95.50;;;;;;5111177;28;20364;-74
2021/09/23 03:47:15;;;;;;;;;;;17.40;95.50;;;;;;5111173;28;20320;-76
2021/09/23 03:49:40;;;;;;;;;;;17.40;95.50;;;;;;5111005;28;19917;-74
2021/09/23 03:52:06;;;;;;;;;;;17.30;95.40;;;;;;5111007;28;20201;-78
2021/09/23 03:54:31;;;;;;;;;;;17.30;95.40;;;;;;5092687;28;19907;-76
2021/09/23 03:56:57;;;;;;;;;;;17.20;95.30;;;;;;5110945;28;19907;-76
2021/09/23 03:59:23;;;;;;;;;;;17.20;95.40;;;;;;5110091;28;20380;-78
2021/09/23 04:01:49;;;;;;;;;;;17.10;95.30;;;;;;5092656;28;19908;-76
2021/09/23 04:04:15;;;;;;;;;;;17.00;95.20;;;;;;5092708;28;19918;-78
2021/09/23 04:06:44;;;;;;;;;;;17.00;95.30;;;;;;5110785;28;19908;-74
2021/09/23 04:09:12;;;;;;;;;;;17.00;95.30;;;;;;5092309;28;19912;-80
2021/09/23 04:11:39;;;;;;;;;;;17.00;95.30;;;;;;5110611;28;19903;-78
2021/09/23 04:14:05;;;;;;;;;;;17.00;95.20;;;;;;5110628;28;19911;-75
2021/09/23 04:16:31;;;;;;;;;;;17.10;95.20;;;;;;5110558;28;20074;-76
2021/09/23 04:18:56;;;;;;;;;;;17.00;95.10;;;;;;5110471;28;19904;-78
2021/09/23 04:21:22;;;;;;;;;;;17.10;95.10;;;;;;5110464;28;19913;-76
2021/09/23 04:23:47;;;;;;;;;;;17.10;95.00;;;;;;5110428;28;20286;-75
2021/09/23 04:26:13;;;;;;;;;;;17.10;94.90;;;;;;5092135;28;19953;-76
2021/09/23 04:28:39;;;;;;;;;;;17.10;94.80;;;;;;5110314;28;19947;-78
2021/09/23 04:31:04;;;;;;;;;;;17.20;94.80;;;;;;5110287;28;20379;-76
2021/09/23 04:33:30;;;;;;;;;;;17.20;94.80;;;;;;5110331;28;19912;-78
2021/09/23 04:35:55;;;;;;;;;;;17.20;94.70;;;;;;5110179;28;19908;-77
2021/09/23 04:38:21;;;;;;;;;;;17.10;94.70;;;;;;5110160;28;20012;-76
2021/09/23 04:40:48;;;;;;;;;;;17.10;94.60;;;;;;5109904;28;19911;-78
2021/09/23 04:43:14;;;;;;;;;;;17.00;94.60;;;;;;5110049;28;20221;-77
2021/09/23 04:45:39;;;;;;;;;;;17.00;94.60;;;;;;5109921;28;19951;-78
2021/09/23 04:48:05;;;;;;;;;;;16.90;94.50;;;;;;5109997;28;19961;-79
2021/09/23 04:50:31;;;;;;;;;;;16.80;94.50;;;;;;5109740;28;19915;-77
2021/09/23 04:52:56;;;;;;;;;;;16.80;94.50;;;;;;5091500;28;19950;-77
2021/09/23 04:55:22;;;;;;;;;;;16.70;94.40;;;;;;5109673;28;19943;-77
2021/09/23 04:57:48;;;;;;;;;;;16.50;94.30;;;;;;5109634;28;19952;-77
2021/09/23 05:00:14;;;;;;;;;;;16.40;94.40;;;;;;5091213;28;19962;-77
2021/09/23 05:02:39;;;;;;;;;;;16.30;94.40;;;;;;5109538;28;19914;-76
2021/09/23 05:05:05;;;;;;;;;;;16.20;94.40;;;;;;5109591;28;20010;-80
2021/09/23 05:07:31;;;;;;;;;;;16.10;94.50;;;;;;5109515;28;19919;-76
2021/09/23 05:09:56;;;;;;;;;;;15.90;94.50;;;;;;5109380;28;20006;-77
2021/09/23 05:12:22;;;;;;;;;;;15.90;94.60;;;;;;5109303;28;19911;-76
2021/09/23 05:14:47;;;;;;;;;;;15.80;94.70;;;;;;5109404;28;19914;-76
2021/09/23 05:17:13;;;;;;;;;;;15.70;94.80;;;;;;5109399;28;19922;-77
2021/09/23 05:19:39;;;;;;;;;;;15.60;94.90;;;;;;5109325;28;19951;-78
2021/09/23 05:22:04;;;;;;;;;;;15.60;94.90;;;;;;5109134;28;19915;-75
2021/09/23 05:24:30;;;;;;;;;;;15.50;94.90;;;;;;5090955;28;19912;-76
2021/09/23 05:26:55;;;;;;;;;;;15.40;94.90;;;;;;5109004;28;20049;-76
2021/09/23 05:29:21;;;;;;;;;;;15.30;94.90;;;;;;5108956;28;19915;-76
2021/09/23 05:31:46;;;;;;;;;;;15.30;95.00;;;;;;5109061;28;19907;-79
2021/09/23 05:34:12;;;;;;;;;;;15.30;95.00;;;;;;5109042;28;20366;-78
2021/09/23 05:36:38;;;;;;;;;;;15.30;95.00;;;;;;5109121;28;19921;-75
2021/09/23 05:39:04;;;;;;;;;;;15.30;94.90;;;;;;5109281;28;19918;-77
2021/09/23 05:41:30;;;;;;;;;;;15.20;94.80;;;;;;5108831;28;19957;-77
2021/09/23 05:43:56;;;;;;;;;;;15.20;94.80;;;;;;5090285;28;19915;-77
2021/09/23 05:46:21;;;;;;;;;;;15.20;94.80;;;;;;5108618;28;19903;-76
2021/09/23 05:48:47;;;;;;;;;;;15.20;94.90;;;;;;5108840;28;20379;-75
2021/09/23 05:51:13;;;;;;;;;;;15.20;94.80;;;;;;5108637;28;19935;-75
2021/09/23 05:53:38;;;;;;;;;;;15.20;94.80;;;;;;5090472;28;20357;-80
2021/09/23 05:56:04;;;;;;;;;;;15.20;94.80;;;;;;5108540;28;19911;-77
2021/09/23 05:58:30;;;;;;;;;;;15.20;94.80;;;;;;5108674;28;19904;-78
2021/09/23 06:00:55;;;;;;;;;;;15.20;94.80;;;;;;5090454;28;19915;-75
2021/09/23 06:03:21;;;;;;;;;;;15.20;94.70;;;;;;5108522;28;19903;-79
2021/09/23 06:05:47;;;;;;;;;;;15.20;94.60;;;;;;5090361;28;19931;-77
2021/09/23 06:08:13;;;;;;;;;;;15.20;94.60;;;;;;5090112;28;19957;-78
2021/09/23 06:10:39;;;;;;;;;;;15.20;94.70;;;;;;5090085;28;19907;-77
2021/09/23 06:13:05;;;;;;;;;;;15.20;94.60;;;;;;5108224;28;19950;-76
2021/09/23 06:15:31;;;;;;;;;;;15.10;94.60;;;;;;5108296;28;19960;-77
2021/09/23 06:17:57;;;;;;;;;;;15.10;94.60;;;;;;5090070;28;19999;-77
2021/09/23 06:20:22;;;;;;;;;;;15.00;94.50;;;;;;5108090;28;19922;-79
2021/09/23 06:22:48;;;;;;;;;;;14.90;94.60;;;;;;5108100;28;20358;-76
2021/09/23 06:25:14;;;;;;;;;;;14.90;94.80;;;;;;5107875;28;19903;-78
2021/09/23 06:27:39;;;;;;;;;;;14.90;94.80;;;;;;5108130;28;20380;-78
2021/09/23 06:30:05;;;;;;;;;;;14.90;94.70;;;;;;5107449;28;19966;-76
2021/09/23 06:32:31;;;;;;;;;;;14.80;94.70;;;;;;5089850;28;19915;-77
2021/09/23 06:34:56;;;;;;;;;;;14.80;94.70;;;;;;5107947;28;19904;-77
2021/09/23 06:37:22;;;;;;;;;;;14.80;94.60;;;;;;5107949;28;19908;-76
2021/09/23 06:39:47;;;;;;;;;;;14.70;94.60;;;;;;5108153;28;19918;-77
2021/09/23 06:42:16;;;;;;;;;;;14.70;94.60;;;;;;5108011;28;20309;-78
2021/09/23 06:44:43;;;;;;;;;;;14.60;94.60;;;;;;5072765;28;19989;-76
2021/09/23 06:47:08;;;;;;;;;;;14.50;94.60;;;;;;5089169;28;20376;-78
2021/09/23 06:49:34;;;;;;;;;;;14.50;94.70;;;;;;5089463;28;19911;-72
2021/09/23 06:52:00;;;;;;;;;;;14.40;94.80;;;;;;5107463;28;19912;-76
2021/09/23 06:54:25;;;;;;;;;;;14.40;94.80;;;;;;5107434;28;19904;-75
2021/09/23 06:56:51;;;;;;;;;;;14.40;94.80;;;;;;5089148;28;20290;-76
2021/09/23 06:59:16;;;;;;;;;;;14.40;94.80;;;;;;5072672;28;19911;-76
2021/09/23 07:01:42;;;;;;;;;;;14.40;94.80;;;;;;5107453;28;19911;-77
2021/09/23 07:04:08;;;;;;;;;;;14.40;94.80;;;;;;5107659;28;20311;-75
2021/09/23 07:06:33;;;;;;;;;;;14.40;94.80;;;;;;5107415;28;19927;-76
2021/09/23 07:08:59;;;;;;;;;;;14.40;94.70;;;;;;5107539;28;19956;-77
2021/09/23 07:11:24;;;;;;;;;;;14.40;94.70;;;;;;5106961;28;19951;-76
2021/09/23 07:13:50;;;;;;;;;;;14.50;94.70;;;;;;5107033;28;19922;-76
2021/09/23 07:16:15;;;;;;;;;;;14.50;94.70;;;;;;5107147;28;19904;-76
2021/09/23 07:18:41;;;;;;;;;;;14.50;94.70;;;;;;5107290;28;19933;-76
2021/09/23 07:21:07;;;;;;;;;;;14.60;94.70;;;;;;5088820;28;19951;-76
2021/09/23 07:23:33;;;;;;;;;;;14.60;94.70;;;;;;5107890;28;19930;-75
2021/09/23 07:25:58;;;;;;;;;;;14.70;94.70;;;;;;5107204;28;20405;-78
2021/09/23 07:28:25;;;;;;;;;;;14.70;94.60;;;;;;5072271;28;19960;-78
2021/09/23 07:30:51;;;;;;;;;;;14.70;94.60;;;;;;5088645;28;19915;-79
2021/09/23 07:33:17;;;;;;;;;;;14.80;94.60;;;;;;5106065;28;19916;-77
2021/09/23 07:35:43;;;;;;;;;;;14.90;94.70;;;;;;5091098;28;19918;-79
2021/09/23 07:38:08;;;;;;;;;;;15.00;94.70;;;;;;5110717;28;20254;-79
2021/09/23 07:40:34;;;;;;;;;;;15.20;94.50;;;;;;5110552;28;20353;-77
2021/09/23 07:42:59;;;;;;;;;;;15.30;94.30;;;;;;5110713;28;19955;-76
2021/09/23 07:45:25;;;;;;;;;;;15.40;94.30;;;;;;5092321;28;19911;-76
2021/09/23 07:47:51;;;;;;;;;;;15.40;94.20;;;;;;5110309;28;19929;-78
2021/09/23 07:50:17;;;;;;;;;;;15.50;94.10;;;;;;5091985;28;19915;-76
2021/09/23 07:52:42;;;;;;;;;;;15.60;94.00;;;;;;5110298;28;20011;-77
2021/09/23 07:55:08;;;;;;;;;;;15.70;94.10;;;;;;5110355;28;19904;-75
2021/09/23 07:57:34;;;;;;;;;;;16.10;94.30;;;;;;5075496;28;19911;-77
2021/09/23 08:00:03;;;;;;;;;;;16.40;94.10;;;;;;5075295;28;20281;-78
2021/09/23 08:02:29;;;;;;;;;;;16.50;93.80;;;;;;5109867;28;19915;-78
2021/09/23 08:04:55;;;;;;;;;;;16.50;93.50;;;;;;5075863;28;19908;-77
2021/09/23 08:07:21;;;;;;;;;;;16.60;93.30;;;;;;5076416;28;20098;-79
2021/09/23 08:09:47;;;;;;;;;;;16.80;93.40;;;;;;5093155;28;19911;-79
2021/09/23 08:12:13;;;;;;;;;;;17.10;93.60;;;;;;5111027;28;20246;-77
2021/09/23 08:14:38;;;;;;;;;;;17.90;94.00;;;;;;5110887;28;19908;-78
2021/09/23 08:17:07;;;;;;;;;;;18.90;93.50;;;;;;5092499;28;19908;-80
2021/09/23 08:19:35;;;;;;;;;;;19.90;92.80;;;;;;5092526;28;19904;-78
2021/09/23 08:22:01;;;;;;;;;;;20.80;91.90;;;;;;5110614;28;19991;-79
2021/09/23 08:24:27;;;;;;;;;;;21.60;91.30;;;;;;5092586;28;19954;-78
2021/09/23 08:26:53;;;;;;;;;;;22.10;88.90;;;;;;5092445;28;19943;-77
2021/09/23 08:29:18;;;;;;;;;;;21.90;86.60;;;;;;5110520;28;20513;-76
2021/09/23 08:31:44;;;;;;;;;;;21.60;84.50;;;;;;5110669;28;20014;-78
2021/09/23 08:34:09;;;;;;;;;;;21.20;84.60;;;;;;5092158;28;19912;-78
2021/09/23 08:36:35;;;;;;;;;;;21.00;83.80;;;;;;5110616;28;19908;-77
2021/09/23 08:39:01;;;;;;;;;;;20.90;84.30;;;;;;5091917;28;19908;-75
2021/09/23 08:41:26;;;;;;;;;;;21.00;84.60;;;;;;5109999;28;20259;-75
2021/09/23 08:43:52;;;;;;;;;;;21.30;84.40;;;;;;5091311;28;19949;-76
2021/09/23 08:46:18;;;;;;;;;;;21.60;83.90;;;;;;5091708;28;19914;-77
2021/09/23 08:48:44;;;;;;;;;;;22.10;83.50;;;;;;5109917;28;19951;-79
2021/09/23 08:51:09;;;;;;;;;;;22.40;83.50;;;;;;5074789;28;19946;-79
2021/09/23 08:53:36;;;;;;;;;;;22.30;81.50;;;;;;5110062;28;19958;-77
2021/09/23 08:56:02;;;;;;;;;;;22.20;79.40;;;;;;5109554;28;20397;-75
2021/09/23 08:58:27;;;;;;;;;;;22.40;80.30;;;;;;5109499;28;19971;-77
2021/09/23 09:01:06;;;;;;;;;;;22.90;80.40;;;;;;5091623;28;20040;-74
2021/09/23 09:03:33;;;;;;;;;;;22.80;79.50;;;;;;5110054;28;19904;-77
2021/09/23 09:05:59;;;;;;;;;;;22.40;78.70;;;;;;5110020;28;19970;-76
2021/09/23 09:08:28;;;;;;;;;;;22.20;78.70;;;;;;5109985;28;19947;-77
2021/09/23 09:10:54;;;;;;;;;;;21.90;77.70;;;;;;5109559;28;20362;-78
2021/09/23 09:13:20;;;;;;;;;;;21.60;77.60;;;;;;5088231;28;19916;-78
2021/09/23 09:15:45;;;;;;;;;;;21.70;78.30;;;;;;5090358;28;19957;-77
2021/09/23 09:18:12;;;;;;;;;;;21.90;79.10;;;;;;5072624;28;19912;-76
2021/09/23 09:20:53;;;;;;;;;;;22.50;80.60;;;;;;5089962;28;20362;-78
2021/09/23 09:23:18;;;;;;;;;;;23.50;79.50;;;;;;5089931;28;19947;-78
2021/09/23 09:25:44;;;;;;;;;;;24.20;75.50;;;;;;5081155;28;19963;-78
2021/09/23 09:28:09;;;;;;;;;;;24.40;73.10;;;;;;5090166;28;19908;-75
2021/09/23 09:30:36;;;;;;;;;;;24.10;71.20;;;;;;5089058;28;20296;-78
2021/09/23 09:33:02;;;;;;;;;;;24.00;71.00;;;;;;5088945;28;19908;-76
2021/09/23 09:35:34;;;;;;;;;;;24.30;72.50;;;;;;5090169;28;19904;-78
2021/09/23 09:38:01;;;;;;;;;;;24.70;72.90;;;;;;5089944;28;20002;-77
2021/09/23 09:40:27;;;;;;;;;;;25.40;71.10;;;;;;5089947;28;19904;-77
2021/09/23 09:42:54;;;;;;;;;;;25.90;70.30;;;;;;5089883;28;19911;-78
2021/09/23 09:45:21;;;;;;;;;;;26.50;69.60;;;;;;5088217;28;20002;-79
2021/09/23 09:47:56;;;;;;;;;;;26.80;68.70;;;;;;5089549;28;19966;-77
2021/09/23 09:50:26;;;;;;;;;;;26.70;67.80;;;;;;5084942;28;19919;-75
2021/09/23 09:52:56;;;;;;;;;;;26.40;66.60;;;;;;5079245;28;19904;-75
2021/09/23 09:55:23;;;;;;;;;;;26.20;66.50;;;;;;5089326;28;19915;-77
2021/09/23 09:57:49;;;;;;;;;;;26.30;68.10;;;;;;5088077;28;19911;-76
2021/09/23 10:00:16;;;;;;;;;;;27.00;68.30;;;;;;5089070;28;19908;-78
2021/09/23 10:02:43;;;;;;;;;;;27.50;68.60;;;;;;5089602;28;20045;-77
2021/09/23 10:05:12;;;;;;;;;;;28.20;69.40;;;;;;5089606;28;20335;-79
2021/09/23 10:07:39;;;;;;;;;;;28.70;67.80;;;;;;5089691;28;19957;-77
2021/09/23 10:10:05;;;;;;;;;;;28.60;65.30;;;;;;5088053;28;20274;-78
2021/09/23 10:12:31;;;;;;;;;;;28.00;64.90;;;;;;5093404;28;20386;-74
2021/09/23 10:14:58;;;;;;;;;;;27.80;65.70;;;;;;5109703;28;20005;-77
2021/09/23 10:17:29;;;;;;;;;;;28.00;66.50;;;;;;5109584;28;19922;-77
2021/09/23 10:19:56;;;;;;;;;;;28.30;66.50;;;;;;5109530;28;20725;-75
2021/09/23 10:22:21;;;;;;;;;;;28.00;63.90;;;;;;5109441;28;19947;-75
2021/09/23 10:24:47;;;;;;;;;;;27.40;64.00;;;;;;5109586;28;19916;-76
2021/09/23 10:29:58;;;;;;;;;;;26.80;64.60;;;;;;5109049;28;19965;-75
2021/09/23 10:32:25;;;;;;;;;;;26.90;64.00;;;;;;5089876;28;20330;-76
2021/09/23 10:34:51;;;;;;;;;;;27.00;65.00;;;;;;5109256;28;19926;-77
2021/09/23 10:37:18;;;;;;;;;;;26.90;64.00;;;;;;5110045;28;19915;-76
2021/09/23 10:39:44;;;;;;;;;;;26.50;63.00;;;;;;5109971;28;19907;-79
2021/09/23 10:42:13;;;;;;;;;;;26.10;62.80;;;;;;5109571;28;19915;-76
2021/09/23 10:44:38;;;;;;;;;;;25.70;63.00;;;;;;5091243;28;19918;-75
2021/09/23 10:47:07;;;;;;;;;;;25.60;63.40;;;;;;5109258;28;19919;-75
2021/09/23 10:49:34;;;;;;;;;;;25.40;63.40;;;;;;5109061;28;19907;-76
2021/09/23 10:51:59;;;;;;;;;;;25.20;63.40;;;;;;5109239;28;19919;-76
2021/09/23 10:54:26;;;;;;;;;;;25.30;63.70;;;;;;5108653;28;20338;-76
2021/09/23 10:56:51;;;;;;;;;;;25.80;63.80;;;;;;5108265;28;20011;-76
2021/09/23 10:59:17;;;;;;;;;;;26.30;63.20;;;;;;5089731;28;20317;-75
2021/09/23 11:01:44;;;;;;;;;;;26.80;63.40;;;;;;5109013;28;20392;-76
2021/09/23 11:04:11;;;;;;;;;;;27.60;64.00;;;;;;5090698;28;19933;-77
2021/09/23 11:06:37;;;;;;;;;;;28.30;63.40;;;;;;5105616;28;20414;-75
2021/09/23 11:09:19;;;;;;;;;;;28.30;62.10;;;;;;5110028;28;19908;-77
2021/09/23 11:11:46;;;;;;;;;;;28.00;61.80;;;;;;5094252;28;19903;-78
2021/09/23 11:14:11;;;;;;;;;;;28.10;62.10;;;;;;5113340;28;20022;-76
2021/09/23 11:16:37;;;;;;;;;;;28.40;63.30;;;;;;5094802;28;19969;-74
2021/09/23 11:19:03;;;;;;;;;;;28.70;62.40;;;;;;5112392;28;19986;-78
2021/09/23 11:21:29;;;;;;;;;;;28.70;61.50;;;;;;5093641;28;20033;-77
2021/09/23 11:23:55;;;;;;;;;;;28.70;61.50;;;;;;5093789;28;19909;-77
2021/09/23 11:26:21;;;;;;;;;;;28.70;62.20;;;;;;5112352;28;19932;-77
2021/09/23 11:28:46;;;;;;;;;;;28.70;62.00;;;;;;5094038;28;19908;-78
2021/09/23 11:31:12;;;;;;;;;;;28.70;61.80;;;;;;5112002;28;19919;-76
2021/09/23 11:33:41;;;;;;;;;;;28.70;62.10;;;;;;5112585;28;19923;-79
2021/09/23 11:36:07;;;;;;;;;;;28.60;61.70;;;;;;5112242;28;19919;-78
2021/09/23 11:38:33;;;;;;;;;;;28.40;61.40;;;;;;5093895;28;19905;-78
2021/09/23 11:40:58;;;;;;;;;;;28.30;62.20;;;;;;5112053;28;19927;-76
2021/09/23 11:43:30;;;;;;;;;;;28.20;62.00;;;;;;5112595;28;19990;-78
2021/09/23 11:45:56;;;;;;;;;;;28.20;61.00;;;;;;5095109;28;19966;-76
2021/09/23 11:48:27;;;;;;;;;;;28.10;61.40;;;;;;5094005;28;19965;-78
2021/09/23 11:51:00;;;;;;;;;;;28.00;60.70;;;;;;5093236;28;19924;-77
2021/09/23 11:53:29;;;;;;;;;;;27.80;60.30;;;;;;5093678;28;19950;-76
2021/09/23 11:55:54;;;;;;;;;;;27.70;60.40;;;;;;5111690;28;19918;-77
2021/09/23 11:58:20;;;;;;;;;;;27.50;60.00;;;;;;5111881;28;20301;-79
2021/09/23 12:00:46;;;;;;;;;;;27.50;60.30;;;;;;5112005;28;20254;-78
2021/09/23 12:03:13;;;;;;;;;;;27.40;59.60;;;;;;5111982;28;19903;-76
2021/09/23 12:05:39;;;;;;;;;;;27.30;60.20;;;;;;5109042;28;20008;-77
2021/09/23 12:08:07;;;;;;;;;;;27.10;60.20;;;;;;5093531;28;20338;-77
2021/09/23 12:10:33;;;;;;;;;;;26.90;60.00;;;;;;5111136;28;19915;-77
2021/09/23 12:12:59;;;;;;;;;;;26.60;60.10;;;;;;5090252;28;19961;-75
2021/09/23 12:15:28;;;;;;;;;;;26.30;60.20;;;;;;5111877;28;19914;-75
2021/09/23 12:17:54;;;;;;;;;;;26.20;60.80;;;;;;5111543;28;19910;-78
2021/09/23 12:20:20;;;;;;;;;;;26.00;60.70;;;;;;5092412;28;19939;-77
2021/09/23 12:22:46;;;;;;;;;;;25.80;60.10;;;;;;5111492;28;19904;-76
2021/09/23 12:25:13;;;;;;;;;;;25.60;60.10;;;;;;5110683;28;19912;-76
2021/09/23 12:27:39;;;;;;;;;;;25.40;60.40;;;;;;5090317;28;19904;-79
2021/09/23 12:30:05;;;;;;;;;;;25.30;60.70;;;;;;5092190;28;19998;-72
2021/09/23 12:32:33;;;;;;;;;;;25.20;60.60;;;;;;5111161;28;20270;-77
2021/09/23 12:34:59;;;;;;;;;;;25.10;60.80;;;;;;5109141;28;19908;-75
2021/09/23 12:37:24;;;;;;;;;;;25.10;61.10;;;;;;5075870;28;19907;-75
2021/09/23 12:39:50;;;;;;;;;;;25.10;61.40;;;;;;5092846;28;20447;-77
2021/09/23 12:42:20;;;;;;;;;;;25.00;61.30;;;;;;5094384;28;19912;-78
2021/09/23 12:45:04;;;;;;;;;;;25.00;61.40;;;;;;5113523;28;19916;-78
2021/09/23 12:47:30;;;;;;;;;;;25.00;61.20;;;;;;5106753;28;19907;-79
2021/09/23 12:49:58;;;;;;;;;;;24.90;61.10;;;;;;5110470;28;20272;-77
2021/09/23 12:52:24;;;;;;;;;;;24.90;61.30;;;;;;5110980;28;19903;-80
2021/09/23 12:54:51;;;;;;;;;;;24.90;61.40;;;;;;5111435;28;19949;-78
2021/09/23 12:57:18;;;;;;;;;;;24.90;61.50;;;;;;5110610;28;19912;-75
2021/09/23 12:59:44;;;;;;;;;;;24.90;61.40;;;;;;5092619;28;20009;-78
2021/09/23 13:02:11;;;;;;;;;;;24.90;60.80;;;;;;5092634;28;20003;-78
2021/09/23 13:04:36;;;;;;;;;;;24.80;61.00;;;;;;5111146;28;19908;-77
2021/09/23 13:07:21;;;;;;;;;;;24.80;61.20;;;;;;5111402;28;19961;-83
2021/09/23 13:09:59;;;;;;;;;;;24.90;61.50;;;;;;5111301;28;20438;-73
2021/09/23 13:12:32;;;;;;;;;;;24.90;61.60;;;;;;5091617;28;19907;-77
2021/09/23 13:14:57;;;;;;;;;;;25.00;61.60;;;;;;5111040;28;20388;-79
2021/09/23 13:17:24;;;;;;;;;;;25.10;61.60;;;;;;5111422;28;19937;-80
2021/09/23 13:19:49;;;;;;;;;;;25.20;61.80;;;;;;5076028;28;19961;-79
2021/09/23 13:22:15;;;;;;;;;;;25.30;61.20;;;;;;5093090;28;19908;-78
2021/09/23 13:24:40;;;;;;;;;;;25.30;60.60;;;;;;5093043;28;19957;-79
2021/09/23 13:27:06;;;;;;;;;;;25.40;61.30;;;;;;5110567;28;19907;-79
2021/09/23 13:29:32;;;;;;;;;;;25.70;61.60;;;;;;5074593;28;19922;-78
2021/09/23 13:31:57;;;;;;;;;;;25.80;61.40;;;;;;5091780;28;19952;-78
2021/09/23 13:34:23;;;;;;;;;;;25.90;61.40;;;;;;5109174;28;19934;-79
2021/09/23 13:36:48;;;;;;;;;;;25.90;61.10;;;;;;5091272;28;19952;-77
2021/09/23 13:39:14;;;;;;;;;;;26.00;60.70;;;;;;5091269;28;19908;-74
2021/09/23 13:41:39;;;;;;;;;;;26.00;60.70;;;;;;5109454;28;20489;-78
2021/09/23 13:44:05;;;;;;;;;;;25.90;60.00;;;;;;5109563;28;19907;-79
2021/09/23 13:46:31;;;;;;;;;;;25.70;60.00;;;;;;5092031;28;19998;-76
2021/09/23 13:48:56;;;;;;;;;;;25.60;60.20;;;;;;5110235;28;19930;-78
2021/09/23 13:51:22;;;;;;;;;;;25.40;60.00;;;;;;5109404;28;19939;-78
2021/09/23 13:53:48;;;;;;;;;;;25.30;60.20;;;;;;5109084;28;19903;-75
2021/09/23 13:56:13;;;;;;;;;;;25.10;60.60;;;;;;5108979;28;19908;-75
2021/09/23 13:58:39;;;;;;;;;;;25.00;60.60;;;;;;5109721;28;19907;-79
2021/09/23 14:01:04;;;;;;;;;;;24.90;60.80;;;;;;5090602;28;19914;-75
2021/09/23 14:03:31;;;;;;;;;;;24.80;60.80;;;;;;5091800;28;19908;-76
2021/09/23 14:05:57;;;;;;;;;;;24.60;60.80;;;;;;5093078;28;19918;-78
2021/09/23 14:08:23;;;;;;;;;;;24.50;61.10;;;;;;5110871;28;19908;-78
2021/09/23 14:10:48;;;;;;;;;;;24.40;61.20;;;;;;5092056;28;20023;-79
2021/09/23 14:13:14;;;;;;;;;;;24.30;61.40;;;;;;5091141;28;19911;-78
2021/09/23 14:15:40;;;;;;;;;;;24.20;61.60;;;;;;5108923;28;19952;-75